Time;durP1;ratioP1;P1;durP2;ratioP2;P2;SDS_P1;SDS_P2;PMS_P1;PMS_P2;Temp;Humidity;BMP_temperature;BMP_pressure;BME280_temperature;BME280_humidity;BME280_pressure;Samples;Min_cycle;Max_cycle;Signal;HPM_P1;HPM_P2
2021/11/11 00:00:06;;;;;;;16.25;2.67;;;;;;;9.41;84.58;101813.13;5072286;28;20024;-81
2021/11/11 00:02:31;;;;;;;16.83;2.65;;;;;;;9.39;84.31;101806.25;5065783;28;20061;-81
2021/11/11 00:04:58;;;;;;;17.83;2.80;;;;;;;9.35;84.39;101800.44;5092357;28;20137;-81
2021/11/11 00:07:24;;;;;;;14.15;2.35;;;;;;;9.34;84.30;101796.06;5092892;28;20054;-81
2021/11/11 00:09:49;;;;;;;13.43;2.33;;;;;;;9.30;84.15;101792.16;5092406;28;20028;-82
2021/11/11 00:12:14;;;;;;;15.38;2.28;;;;;;;9.28;84.28;101789.72;5092476;28;20069;-81
2021/11/11 00:14:41;;;;;;;10.48;2.47;;;;;;;9.26;83.87;101788.28;5091197;28;20030;-81
2021/11/11 00:17:06;;;;;;;10.60;1.83;;;;;;;9.21;84.01;101796.34;5091135;28;20020;-81
2021/11/11 00:19:31;;;;;;;13.85;2.47;;;;;;;9.20;83.77;101791.97;5091550;28;20024;-81
2021/11/11 00:21:57;;;;;;;8.38;2.55;;;;;;;9.22;83.24;101796.13;5091078;28;20035;-81
2021/11/11 00:24:22;;;;;;;8.88;1.95;;;;;;;9.22;83.05;101793.41;5092227;28;20081;-81
2021/11/11 00:26:48;;;;;;;10.50;2.50;;;;;;;9.23;83.16;101796.94;5092086;28;20043;-81
2021/11/11 00:29:14;;;;;;;15.77;3.20;;;;;;;9.22;83.05;101789.81;5091387;28;20044;-81
2021/11/11 00:31:39;;;;;;;12.02;2.80;;;;;;;9.20;83.16;101784.63;5091177;28;20546;-81
2021/11/11 00:34:04;;;;;;;15.43;2.30;;;;;;;9.20;83.03;101784.63;5092107;28;20024;-81
2021/11/11 00:36:30;;;;;;;11.02;2.67;;;;;;;9.20;83.13;101781.91;5092314;28;20032;-81
2021/11/11 00:38:55;;;;;;;14.18;2.80;;;;;;;9.18;82.98;101781.31;5093377;28;20514;-81
2021/11/11 00:41:20;;;;;;;11.60;1.77;;;;;;;9.17;83.00;101770.69;5096030;28;20035;-81
2021/11/11 00:43:46;;;;;;;12.50;2.47;;;;;;;9.16;82.67;101780.72;5095845;28;20415;-82
2021/11/11 00:46:11;;;;;;;12.45;2.38;;;;;;;9.10;82.98;101776.25;5078940;28;20188;-82
2021/11/11 00:48:37;;;;;;;16.58;3.20;;;;;;;9.11;82.57;101772.44;5074445;28;20029;-81
2021/11/11 00:51:02;;;;;;;9.70;2.28;;;;;;;9.14;82.37;101771.16;5075545;28;20024;-80
2021/11/11 00:53:28;;;;;;;15.63;2.42;;;;;;;9.13;82.28;101758.63;5075564;28;20500;-81
2021/11/11 00:55:53;;;;;;;10.13;1.98;;;;;;;9.11;82.46;101767.00;5074308;28;20024;-81
2021/11/11 00:58:18;;;;;;;10.27;2.00;;;;;;;9.11;82.25;101756.13;5074183;28;20020;-81
2021/11/11 01:00:44;;;;;;;11.70;2.38;;;;;;;9.11;81.86;101750.69;5075338;28;20383;-81
2021/11/11 01:03:10;;;;;;;12.75;1.90;;;;;;;9.10;82.09;101743.59;5073774;28;20020;-81
2021/11/11 01:05:35;;;;;;;17.45;2.33;;;;;;;9.13;81.79;101736.84;5095576;28;20024;-81
2021/11/11 01:08:01;;;;;;;11.63;2.15;;;;;;;9.13;81.90;101728.69;5094180;28;20477;-81
2021/11/11 01:10:26;;;;;;;8.70;2.38;;;;;;;9.12;81.70;101736.03;5094276;28;20031;-81
2021/11/11 01:12:52;;;;;;;13.98;2.00;;;;;;;9.11;81.70;101743.38;5082940;28;20095;-81
2021/11/11 01:15:23;;;;;;;10.57;1.90;;;;;;;9.09;81.62;101741.97;5093299;28;20095;-81
2021/11/11 01:17:48;;;;;;;13.20;2.10;;;;;;;9.05;81.70;101744.31;5095404;28;20016;-81
2021/11/11 01:20:15;;;;;;;11.80;1.95;;;;;;;9.06;81.56;101731.56;5094030;28;20035;-81
2021/11/11 01:22:41;;;;;;;10.95;1.95;;;;;;;9.07;81.40;101727.78;5095226;28;20480;-82
2021/11/11 01:25:08;;;;;;;10.07;2.28;;;;;;;9.11;81.35;101728.94;5093773;28;20062;-82
2021/11/11 01:27:33;;;;;;;14.68;2.05;;;;;;;9.09;81.10;101712.03;5095404;28;20032;-81
2021/11/11 01:29:59;;;;;;;11.90;2.13;;;;;;;9.09;80.80;101696.53;5094077;28;20439;-81
2021/11/11 01:32:24;;;;;;;11.40;2.45;;;;;;;9.12;80.85;101700.66;5094842;28;20020;-81
2021/11/11 01:34:49;;;;;;;10.75;2.13;;;;;;;9.15;80.71;101694.75;5095191;28;20438;-81
2021/11/11 01:37:15;;;;;;;14.82;2.85;;;;;;;9.15;80.55;101686.59;5093827;28;20465;-81
2021/11/11 01:39:40;;;;;;;15.50;3.13;;;;;;;9.13;80.77;101694.16;5093727;28;20024;-81
2021/11/11 01:42:06;;;;;;;7.43;1.67;;;;;;;9.14;80.36;101704.00;5094789;28;20090;-81
2021/11/11 01:44:31;;;;;;;10.48;2.67;;;;;;;9.13;80.68;101705.03;5091019;28;20102;-81
2021/11/11 01:46:56;;;;;;;13.00;2.00;;;;;;;9.15;80.40;101702.91;5074671;28;20430;-81
2021/11/11 01:49:22;;;;;;;17.88;2.47;;;;;;;9.15;80.54;101708.34;5073243;28;20078;-80
2021/11/11 01:51:47;;;;;;;13.40;2.20;;;;;;;9.16;80.59;101714.59;5073628;28;20024;-80
2021/11/11 01:54:14;;;;;;;11.27;2.20;;;;;;;9.15;80.44;101696.66;5074579;28;20082;-80
2021/11/11 01:56:40;;;;;;;17.63;2.63;;;;;;;9.16;80.49;101698.28;5073076;28;20439;-81
2021/11/11 01:59:05;;;;;;;10.60;2.30;;;;;;;9.15;80.23;101692.03;5073155;28;20077;-80
2021/11/11 02:01:31;;;;;;;13.98;2.22;;;;;;;9.16;80.04;101677.34;5072966;28;20040;-80
2021/11/11 02:03:56;;;;;;;21.23;2.58;;;;;;;9.16;79.95;101671.91;5074186;28;20492;-81
2021/11/11 02:06:22;;;;;;;12.85;2.55;;;;;;;9.19;79.95;101657.81;5072761;28;20036;-81
2021/11/11 02:08:47;;;;;;;11.80;2.80;;;;;;;9.19;79.71;101665.16;5073083;28;20393;-80
2021/11/11 02:11:13;;;;;;;12.82;2.92;;;;;;;9.19;79.46;101679.56;5072829;28;20028;-80
2021/11/11 02:13:39;;;;;;;11.30;2.28;;;;;;;9.20;79.18;101700.28;5072617;28;20048;-80
2021/11/11 02:16:05;;;;;;;13.68;2.83;;;;;;;9.21;79.24;101693.78;5074061;28;20078;-81
2021/11/11 02:18:31;;;;;;;16.45;3.00;;;;;;;9.20;79.18;101688.59;5072501;28;20482;-81
2021/11/11 02:20:56;;;;;;;13.30;3.17;;;;;;;9.20;79.55;101697.56;5074166;28;20028;-80
2021/11/11 02:23:22;;;;;;;14.68;2.30;;;;;;;9.20;79.41;101678.53;5072643;28;20164;-80
2021/11/11 02:25:47;;;;;;;17.05;3.40;;;;;;;9.20;79.58;101678.53;5074102;28;20409;-79
2021/11/11 02:28:15;;;;;;;13.50;2.80;;;;;;;9.19;79.99;101676.84;5073724;28;20126;-79
2021/11/11 02:30:41;;;;;;;17.15;2.85;;;;;;;9.20;80.50;101677.72;5074517;28;20039;-79
2021/11/11 02:33:10;;;;;;;15.02;3.53;;;;;;;9.20;80.73;101667.63;5093949;28;20445;-79
2021/11/11 02:35:36;;;;;;;17.48;4.82;;;;;;;9.20;81.18;101678.53;5094139;28;20027;-80
2021/11/11 02:38:02;;;;;;;14.32;4.07;;;;;;;9.20;81.23;101683.16;5093811;28;20028;-80
2021/11/11 02:40:28;;;;;;;15.85;4.35;;;;;;;9.20;81.48;101688.59;5092704;28;20093;-80
2021/11/11 02:42:54;;;;;;;13.88;3.83;;;;;;;9.18;81.54;101686.09;5092914;28;20016;-80
2021/11/11 02:45:27;;;;;;;17.13;3.85;;;;;;;9.18;81.61;101683.38;5062254;28;20035;-81
2021/11/11 02:47:53;;;;;;;11.85;3.45;;;;;;;9.19;81.92;101687.72;5073329;28;20035;-79
2021/11/11 02:50:19;;;;;;;18.42;2.63;;;;;;;9.20;82.07;101688.59;5072190;28;20020;-79
2021/11/11 02:52:48;;;;;;;15.82;2.65;;;;;;;9.20;82.24;101683.16;5071934;28;20077;-79
2021/11/11 02:55:13;;;;;;;14.70;2.42;;;;;;;9.20;82.45;101678.53;5073270;28;20028;-80
2021/11/11 02:57:40;;;;;;;17.00;3.63;;;;;;;9.21;82.64;101672.00;5073442;28;20028;-79
2021/11/11 03:00:16;;;;;;;9.80;2.45;;;;;;;9.22;82.93;101660.06;5073018;28;20017;-79
2021/11/11 03:02:44;;;;;;;14.65;2.63;;;;;;;9.22;83.11;101653.78;5071878;28;20040;-78
2021/11/11 03:05:10;;;;;;;23.88;3.35;;;;;;;9.22;83.39;101651.91;5072907;28;20012;-78
2021/11/11 03:07:36;;;;;;;21.23;3.35;;;;;;;9.22;83.55;101651.91;5071910;28;20020;-78
2021/11/11 03:10:02;;;;;;;16.17;2.78;;;;;;;9.22;83.84;101651.91;5071665;28;20115;-79
2021/11/11 03:12:28;;;;;;;15.38;3.33;;;;;;;9.21;84.27;101644.78;5071776;28;20052;-79
2021/11/11 03:14:53;;;;;;;20.45;3.45;;;;;;;9.21;84.05;101646.69;5072014;28;20485;-79
2021/11/11 03:17:19;;;;;;;19.25;2.88;;;;;;;9.20;84.34;101648.59;5071894;28;20028;-79
2021/11/11 03:19:44;;;;;;;22.45;3.58;;;;;;;9.19;84.42;101649.66;5067862;28;20503;-80
2021/11/11 03:22:16;;;;;;;20.25;3.53;;;;;;;9.19;84.60;101638.75;5091721;28;20016;-79
2021/11/11 03:24:42;;;;;;;16.23;5.13;;;;;;;9.19;84.58;101632.50;5091839;28;20028;-80
2021/11/11 03:27:08;;;;;;;19.50;4.35;;;;;;;9.18;84.77;101639.84;5092897;28;20031;-80
2021/11/11 03:29:34;;;;;;;20.67;4.10;;;;;;;9.17;84.81;101640.91;5093127;28;20024;-80
2021/11/11 03:32:01;;;;;;;21.85;4.68;;;;;;;9.17;84.58;101638.19;5092878;28;20409;-80
2021/11/11 03:34:26;;;;;;;29.88;5.75;;;;;;;9.17;84.60;101631.94;5092938;28;20381;-80
2021/11/11 03:36:55;;;;;;;19.48;3.38;;;;;;;9.17;84.91;101629.22;5092842;28;20024;-80
2021/11/11 03:39:21;;;;;;;14.52;3.50;;;;;;;9.17;84.95;101638.19;5093390;28;20469;-79
2021/11/11 03:41:47;;;;;;;17.17;3.00;;;;;;;9.16;84.81;101639.25;5062771;28;20036;-80
2021/11/11 03:44:15;;;;;;;17.20;4.20;;;;;;;9.16;84.73;101635.72;5071438;28;20029;-80
2021/11/11 03:46:41;;;;;;;20.08;4.07;;;;;;;9.18;84.76;101636.31;5085024;28;20382;-79
2021/11/11 03:49:07;;;;;;;17.95;3.90;;;;;;;9.18;85.02;101642.56;5054604;28;20027;-79
2021/11/11 03:51:33;;;;;;;23.33;3.00;;;;;;;9.17;84.90;101631.94;5072420;28;20528;-79
2021/11/11 03:53:58;;;;;;;20.63;3.45;;;;;;;9.17;84.84;101630.03;5071522;28;20103;-79
2021/11/11 03:56:24;;;;;;;14.40;2.22;;;;;;;9.20;85.25;101629.56;5071161;28;20036;-79
2021/11/11 03:58:49;;;;;;;16.63;2.33;;;;;;;9.21;84.97;101631.19;5072521;28;20026;-79
2021/11/11 04:01:15;;;;;;;14.43;2.80;;;;;;;9.23;84.92;101629.06;5071114;28;20024;-79
2021/11/11 04:03:40;;;;;;;18.25;3.22;;;;;;;9.26;85.02;101627.75;5071323;28;20485;-79
2021/11/11 04:06:06;;;;;;;17.90;2.95;;;;;;;9.29;85.10;101638.13;5072573;28;20466;-79
2021/11/11 04:08:32;;;;;;;17.17;4.68;;;;;;;9.31;84.55;101625.13;5072584;28;20401;-80
2021/11/11 04:10:57;;;;;;;20.17;4.45;;;;;;;9.31;84.65;101623.22;5072668;28;20427;-80
2021/11/11 04:13:23;;;;;;;17.45;2.85;;;;;;;9.30;84.48;101610.69;5071472;28;20051;-80
2021/11/11 04:15:48;;;;;;;11.65;3.17;;;;;;;9.28;84.45;101610.09;5076444;28;20055;-80
2021/11/11 04:18:14;;;;;;;12.70;2.92;;;;;;;9.26;83.98;101601.34;5074963;28;20054;-80
2021/11/11 04:20:39;;;;;;;14.32;3.53;;;;;;;9.25;84.00;101596.19;5076346;28;20020;-80
2021/11/11 04:23:05;;;;;;;15.38;2.70;;;;;;;9.25;83.84;101596.19;5076292;28;20381;-80
2021/11/11 04:25:39;;;;;;;16.05;2.38;;;;;;;9.25;83.72;101593.44;5074850;28;20059;-80
2021/11/11 04:28:08;;;;;;;11.95;2.10;;;;;;;9.24;83.28;101587.16;5070658;28;20076;-81
2021/11/11 04:30:34;;;;;;;16.13;2.97;;;;;;;9.25;83.21;101588.84;5078165;28;20020;-81
2021/11/11 04:33:00;;;;;;;14.35;2.42;;;;;;;9.27;83.07;101570.34;5076052;28;20078;-80
2021/11/11 04:35:26;;;;;;;17.33;2.83;;;;;;;9.29;83.37;101572.81;5074061;28;20039;-80
2021/11/11 04:45:56;;;;;;;14.73;2.55;;;;;;;9.26;83.51;101579.59;5083521;28;20029;-79
2021/11/11 05:04:32;;;;;;;14.65;2.28;;;;;;;9.20;83.70;101558.00;5064277;28;20059;-81
2021/11/11 05:06:57;;;;;;;11.27;2.40;;;;;;;9.20;83.39;101553.38;5094477;28;20036;-81
2021/11/11 05:09:23;;;;;;;12.63;2.92;;;;;;;9.19;83.52;101551.69;5094839;28;20032;-81
2021/11/11 05:11:50;;;;;;;26.02;3.00;;;;;;;9.19;83.52;101546.25;5060528;28;20040;-81
2021/11/11 05:14:16;;;;;;;21.23;2.75;;;;;;;9.19;83.20;101557.13;5095866;28;20024;-80
2021/11/11 05:16:41;;;;;;;12.43;2.08;;;;;;;9.20;83.25;101542.47;5094205;28;20100;-80
2021/11/11 05:19:07;;;;;;;13.98;2.65;;;;;;;9.21;82.92;101533.25;5094521;28;20465;-80
2021/11/11 05:21:33;;;;;;;17.40;2.67;;;;;;;9.21;82.98;101541.41;5095430;28;20384;-80
2021/11/11 05:23:58;;;;;;;20.30;3.65;;;;;;;9.21;83.14;101546.84;5095188;28;20077;-81
2021/11/11 05:26:24;;;;;;;18.42;2.70;;;;;;;9.22;82.96;101543.06;5092711;28;20032;-81
2021/11/11 05:28:50;;;;;;;14.05;1.98;;;;;;;9.23;83.17;101542.00;5093999;28;20016;-80
2021/11/11 05:31:15;;;;;;;10.20;1.80;;;;;;;9.24;82.86;101538.19;5094297;28;20028;-81
2021/11/11 05:33:41;;;;;;;22.00;3.10;;;;;;;9.24;83.26;101524.59;5095163;28;20226;-81
2021/11/11 05:36:06;;;;;;;20.95;3.40;;;;;;;9.24;83.11;101527.31;5095208;28;20027;-80
2021/11/11 05:38:32;;;;;;;10.85;3.20;;;;;;;9.24;83.15;101526.47;5095113;28;20028;-81
2021/11/11 05:40:57;;;;;;;19.95;3.55;;;;;;;9.22;83.14;101523.19;5093687;28;20027;-80
2021/11/11 05:43:22;;;;;;;15.60;2.58;;;;;;;9.19;83.34;101513.59;5095079;28;20024;-80
2021/11/11 05:45:48;;;;;;;19.45;2.65;;;;;;;9.17;83.35;101504.88;5080305;28;20355;-80
2021/11/11 05:48:15;;;;;;;17.10;3.28;;;;;;;9.14;83.47;101505.38;5074717;28;20107;-80
2021/11/11 05:50:40;;;;;;;13.45;2.20;;;;;;;9.13;83.36;101502.91;5073371;28;20036;-80
2021/11/11 05:53:05;;;;;;;16.13;2.90;;;;;;;9.12;83.72;101491.19;5074665;28;20024;-80
2021/11/11 05:55:31;;;;;;;16.60;2.88;;;;;;;9.11;83.83;101489.53;5073388;28;20035;-80
2021/11/11 05:57:57;;;;;;;17.50;2.00;;;;;;;9.11;83.54;101490.38;5073104;28;20025;-80
2021/11/11 06:00:22;;;;;;;18.80;3.67;;;;;;;9.13;83.14;101484.69;5073355;28;20032;-80
2021/11/11 06:02:48;;;;;;;13.85;2.78;;;;;;;9.14;83.19;101483.63;5073064;28;20077;-80
2021/11/11 06:05:14;;;;;;;14.65;2.28;;;;;;;9.14;83.24;101482.78;5073093;28;20070;-80
2021/11/11 06:07:40;;;;;;;12.60;2.30;;;;;;;9.14;82.94;101499.94;5074292;28;20024;-79
2021/11/11 06:10:06;;;;;;;12.45;2.47;;;;;;;9.16;83.01;101497.78;5074158;28;20027;-80
2021/11/11 06:12:31;;;;;;;12.43;2.50;;;;;;;9.19;83.12;101491.84;5072883;28;20044;-80
2021/11/11 06:14:57;;;;;;;25.15;2.60;;;;;;;9.23;83.40;101492.19;5074041;28;20032;-80
2021/11/11 06:17:24;;;;;;;13.50;2.42;;;;;;;9.26;83.26;101486.25;5074515;28;20426;-80
2021/11/11 06:19:50;;;;;;;13.80;2.72;;;;;;;9.29;83.35;101485.75;5072826;28;20097;-80
2021/11/11 06:22:15;;;;;;;10.77;2.08;;;;;;;9.33;83.05;101476.03;5073921;28;20323;-80
2021/11/11 06:24:41;;;;;;;16.52;2.83;;;;;;;9.34;82.80;101475.78;5073937;28;20033;-80
2021/11/11 06:27:06;;;;;;;21.17;2.63;;;;;;;9.34;82.51;101473.06;5073841;28;20025;-80
2021/11/11 06:29:32;;;;;;;17.77;2.67;;;;;;;9.36;82.80;101459.22;5072739;28;20032;-80
2021/11/11 06:31:57;;;;;;;18.40;2.80;;;;;;;9.34;82.87;101456.72;5072663;28;20054;-80
2021/11/11 06:34:22;;;;;;;9.15;2.28;;;;;;;9.36;83.27;101459.22;5072837;28;20044;-79
2021/11/11 06:36:48;;;;;;;18.77;2.40;;;;;;;9.38;83.26;101464.38;5072093;28;20032;-80
2021/11/11 06:39:13;;;;;;;14.40;3.08;;;;;;;9.39;83.20;101466.06;5072191;28;20066;-79
2021/11/11 06:41:38;;;;;;;11.77;2.20;;;;;;;9.39;83.37;101447.00;5073691;28;20029;-80
2021/11/11 06:44:05;;;;;;;18.27;3.20;;;;;;;9.41;83.97;101467.47;5072368;28;20103;-80
2021/11/11 06:46:31;;;;;;;17.52;3.05;;;;;;;9.41;84.11;101463.88;5087573;28;20477;-80
2021/11/11 06:48:56;;;;;;;11.65;2.35;;;;;;;9.44;84.34;101466.94;5072299;28;20025;-80
2021/11/11 06:51:21;;;;;;;17.55;3.63;;;;;;;9.46;84.35;101467.50;5073621;28;20085;-80
2021/11/11 06:53:47;;;;;;;16.98;3.30;;;;;;;9.49;84.40;101460.75;5072170;28;20385;-80
2021/11/11 06:56:13;;;;;;;17.63;3.75;;;;;;;9.51;84.36;101445.00;5073154;28;20032;-80
2021/11/11 06:58:38;;;;;;;17.42;2.58;;;;;;;9.52;84.57;101447.47;5072382;28;20031;-80
2021/11/11 07:01:04;;;;;;;15.32;2.67;;;;;;;9.56;84.93;101458.69;5072109;28;20466;-80
2021/11/11 07:03:29;;;;;;;11.13;2.42;;;;;;;9.58;85.08;101451.09;5071883;28;20021;-80
2021/11/11 07:05:55;;;;;;;16.35;3.08;;;;;;;9.59;85.49;101436.41;5072053;28;20025;-80
2021/11/11 07:08:21;;;;;;;21.05;2.95;;;;;;;9.61;85.64;101428.81;5071892;28;20024;-80
2021/11/11 07:10:50;;;;;;;17.88;3.92;;;;;;;9.60;85.51;101427.13;5071861;28;20033;-79
2021/11/11 07:13:15;;;;;;;16.00;2.90;;;;;;;9.60;85.67;101429.88;5071488;28;20068;-80
2021/11/11 07:15:42;;;;;;;19.15;4.07;;;;;;;9.60;85.87;101429.88;5072022;28;20071;-80
2021/11/11 07:18:10;;;;;;;19.63;3.10;;;;;;;9.64;86.05;101430.19;5071887;28;20032;-80
2021/11/11 07:20:36;;;;;;;19.63;2.67;;;;;;;9.66;86.33;101422.63;5071521;28;20028;-80
2021/11/11 07:23:04;;;;;;;25.02;3.72;;;;;;;9.67;86.45;101433.25;5072950;28;20089;-81
2021/11/11 07:25:31;;;;;;;17.60;4.10;;;;;;;9.69;86.56;101422.94;5056734;28;20024;-81
2021/11/11 07:27:57;;;;;;;16.00;3.08;;;;;;;9.71;86.77;101428.09;5091873;28;20030;-80
2021/11/11 07:30:22;;;;;;;17.15;3.60;;;;;;;9.73;87.13;101432.22;5093066;28;20024;-80
2021/11/11 07:32:48;;;;;;;15.98;3.25;;;;;;;9.77;87.45;101427.13;5093361;28;20034;-80
2021/11/11 07:35:13;;;;;;;17.10;3.38;;;;;;;9.78;87.72;101418.69;5091661;28;20464;-80
2021/11/11 07:37:43;;;;;;;15.60;3.53;;;;;;;9.81;88.00;101427.44;5091711;28;20488;-79
2021/11/11 07:40:10;;;;;;;17.15;2.88;;;;;;;9.83;88.12;101431.53;5062219;28;20024;-80
2021/11/11 07:42:36;;;;;;;19.35;4.10;;;;;;;9.86;88.54;101413.88;5072648;28;20024;-80
2021/11/11 07:45:03;;;;;;;20.08;3.53;;;;;;;9.86;88.95;101408.44;5078261;28;20089;-80
2021/11/11 07:47:29;;;;;;;17.80;2.88;;;;;;;9.86;89.25;101406.53;5078352;28;20028;-80
2021/11/11 07:49:56;;;;;;;15.50;2.95;;;;;;;9.86;89.46;101381.19;5071807;28;20043;-80
2021/11/11 07:52:22;;;;;;;16.00;2.60;;;;;;;9.90;89.55;101387.75;5071655;28;20028;-79
2021/11/11 07:54:48;;;;;;;16.45;2.67;;;;;;;9.92;89.88;101401.97;5071259;28;20016;-80
2021/11/11 07:57:13;;;;;;;27.73;3.80;;;;;;;9.92;90.19;101385.63;5072640;28;20020;-79
2021/11/11 07:59:41;;;;;;;6.50;1.50;;;;;;;9.88;90.34;101387.22;5072627;28;20498;-80
2021/11/11 08:02:06;;;;;;;10.77;2.10;;;;;;;9.76;90.50;101384.59;5072747;28;20016;-80
2021/11/11 08:04:32;;;;;;;13.15;2.65;;;;;;;9.71;90.96;101396.28;5072555;28;20106;-80
2021/11/11 08:06:58;;;;;;;19.90;3.05;;;;;;;9.71;91.15;101374.50;5072359;28;20436;-80
2021/11/11 08:09:23;;;;;;;12.88;2.65;;;;;;;9.72;91.08;101376.13;5066080;28;20020;-80
2021/11/11 08:11:49;;;;;;;11.07;2.63;;;;;;;9.73;91.12;101372.31;5090827;28;20055;-79
2021/11/11 08:14:15;;;;;;;26.40;3.60;;;;;;;9.76;91.46;101377.25;5091664;28;20031;-79
2021/11/11 08:16:41;;;;;;;14.27;3.22;;;;;;;9.78;91.70;101371.56;5092548;28;20024;-78
2021/11/11 08:19:06;;;;;;;18.88;2.78;;;;;;;9.80;92.11;101366.69;5092531;28;20020;-79
2021/11/11 08:21:32;;;;;;;23.85;3.20;;;;;;;9.76;92.38;101371.81;5091312;28;20032;-79
2021/11/11 08:23:58;;;;;;;16.85;2.85;;;;;;;9.73;92.41;101366.88;5092305;28;20418;-79
2021/11/11 08:26:23;;;;;;;20.58;3.17;;;;;;;9.72;92.97;101359.78;5062854;28;20058;-79
2021/11/11 08:28:50;;;;;;;22.92;4.40;;;;;;;9.71;93.24;101363.59;5072065;28;20021;-80
2021/11/11 08:31:16;;;;;;;15.73;3.63;;;;;;;9.70;93.74;101356.50;5072884;28;20020;-80
2021/11/11 08:33:44;;;;;;;23.85;4.97;;;;;;;9.69;93.85;101357.59;5071180;28;20168;-80
2021/11/11 08:36:09;;;;;;;15.55;3.75;;;;;;;9.72;94.13;101354.34;5092325;28;20043;-80
2021/11/11 08:38:35;;;;;;;25.88;5.20;;;;;;;9.80;94.90;101349.53;5091643;28;20097;-80
2021/11/11 08:41:00;;;;;;;26.13;4.75;;;;;;;9.84;95.16;101356.09;5092414;28;20012;-79
2021/11/11 08:43:26;;;;;;;24.60;5.30;;;;;;;9.89;95.18;101342.56;5062373;28;20485;-79
2021/11/11 08:45:51;;;;;;;20.50;3.90;;;;;;;9.93;95.39;101338.22;5084685;28;20032;-79
2021/11/11 08:48:17;;;;;;;15.18;3.65;;;;;;;9.96;95.29;101354.91;5077663;28;20016;-80
2021/11/11 08:50:43;;;;;;;13.43;3.92;;;;;;;9.99;95.28;101332.59;5090922;28;20035;-79
2021/11/11 08:53:09;;;;;;;21.27;3.67;;;;;;;10.03;95.14;101330.16;5090794;28;20032;-80
2021/11/11 08:55:35;;;;;;;29.23;4.40;;;;;;;10.07;95.05;101331.31;5092087;28;20020;-80
2021/11/11 08:58:01;;;;;;;19.40;4.78;;;;;;;10.10;94.92;101316.34;5058216;28;20086;-80
2021/11/11 09:00:30;;;;;;;16.17;3.30;;;;;;;10.09;94.81;101311.97;5081012;28;20020;-80
2021/11/11 09:02:57;;;;;;;16.05;3.60;;;;;;;10.09;94.68;101314.69;5077494;28;20024;-80
2021/11/11 09:05:24;;;;;;;20.80;5.22;;;;;;;10.07;94.14;101317.69;5094412;28;20491;-79
2021/11/11 09:07:49;;;;;;;12.77;3.95;;;;;;;10.06;93.59;101316.03;5095810;28;20020;-80
2021/11/11 09:10:20;;;;;;;17.52;5.20;;;;;;;10.05;93.44;101321.75;5079941;28;20089;-80
2021/11/11 09:12:50;;;;;;;13.13;4.88;;;;;;;10.03;93.40;101315.72;5094327;28;20054;-79
2021/11/11 09:15:16;;;;;;;26.20;5.80;;;;;;;9.99;93.38;101318.97;5094094;28;20016;-79
2021/11/11 09:17:41;;;;;;;17.73;4.03;;;;;;;9.99;93.11;101329.06;5095746;28;20022;-79
2021/11/11 09:20:08;;;;;;;22.52;4.90;;;;;;;10.00;93.00;101319.78;5079297;28;20474;-79
2021/11/11 09:22:34;;;;;;;26.35;4.68;;;;;;;10.01;92.94;101329.59;5074978;28;20390;-79
2021/11/11 09:25:04;;;;;;;18.27;4.35;;;;;;;10.03;92.73;101327.44;5073794;28;20027;-80
2021/11/11 09:27:29;;;;;;;17.85;4.38;;;;;;;10.00;92.54;101323.31;5081837;28;20100;-80
2021/11/11 09:29:55;;;;;;;19.17;4.57;;;;;;;9.96;92.51;101326.84;5095223;28;20016;-80
2021/11/11 09:32:20;;;;;;;19.55;5.32;;;;;;;9.90;92.44;101339.59;5095031;28;20012;-80
2021/11/11 09:34:46;;;;;;;18.80;5.43;;;;;;;9.87;92.36;101323.72;5093917;28;20488;-80
2021/11/11 09:37:11;;;;;;;21.98;5.35;;;;;;;9.89;92.37;101320.75;5095007;28;20036;-79
2021/11/11 09:39:38;;;;;;;14.55;4.00;;;;;;;9.93;92.50;101324.59;5094986;28;20024;-80
2021/11/11 09:42:03;;;;;;;21.65;4.93;;;;;;;9.96;92.44;101326.84;5094928;28;20028;-80
2021/11/11 09:44:29;;;;;;;22.08;4.53;;;;;;;10.00;92.52;101327.97;5072677;28;20149;-80
2021/11/11 09:46:54;;;;;;;23.02;4.90;;;;;;;10.02;91.75;101322.28;5086551;28;20039;-80
2021/11/11 09:49:22;;;;;;;11.73;3.50;;;;;;;10.01;92.21;101329.59;5071098;28;20035;-80
2021/11/11 09:51:49;;;;;;;19.25;3.80;;;;;;;10.02;91.98;101333.97;5095306;28;20093;-79
2021/11/11 09:59:25;;;;;;;26.23;4.75;;;;;;;10.07;91.25;101344.13;5066198;28;20515;-80
2021/11/11 10:01:52;;;;;;;18.40;3.50;;;;;;;10.07;91.15;101327.78;5072906;28;20119;-80
2021/11/11 10:04:17;;;;;;;17.38;3.90;;;;;;;10.06;90.76;101337.81;5073056;28;20115;-81
2021/11/11 10:06:43;;;;;;;17.83;3.72;;;;;;;10.09;90.57;101337.31;5072908;28;20146;-80
2021/11/11 10:09:19;;;;;;;17.50;3.90;;;;;;;10.11;90.33;101335.16;5074184;28;20028;-80
2021/11/11 10:11:50;;;;;;;16.83;3.83;;;;;;;10.12;90.10;101336.81;5072332;28;20051;-80
2021/11/11 10:14:22;;;;;;;15.60;3.15;;;;;;;10.14;89.71;101323.75;5094261;28;20106;-81
2021/11/11 10:17:01;;;;;;;18.05;3.92;;;;;;;10.20;89.63;101336.34;5094131;28;20535;-81
2021/11/11 10:19:28;;;;;;;14.98;3.22;;;;;;;10.25;88.99;101330.09;5066771;28;20048;-81
2021/11/11 10:22:06;;;;;;;15.90;3.20;;;;;;;10.25;88.70;101335.56;5073767;28;20036;-80
2021/11/11 10:24:51;;;;;;;11.05;2.40;;;;;;;10.25;88.56;101329.28;5072739;28;20117;-81
2021/11/11 10:27:28;;;;;;;12.35;2.90;;;;;;;10.25;87.96;101329.28;5072585;28;20542;-80
2021/11/11 10:30:02;;;;;;;17.00;4.25;;;;;;;10.29;87.76;101320.38;5073899;28;20038;-81
2021/11/11 10:32:44;;;;;;;18.63;3.13;;;;;;;10.34;87.63;101319.59;5072366;28;20028;-80
2021/11/11 10:35:11;;;;;;;;;;;;;;;10.38;87.23;101320.72;5073981;28;20024;-81
2021/11/11 10:37:38;;;;;;;19.45;3.17;;;;;;;10.35;86.64;101315.78;5073388;28;19910;-81
2021/11/11 10:40:07;;;;;;;15.60;2.50;;;;;;;10.32;86.44;101327.22;5073522;28;20024;-80
2021/11/11 10:42:32;;;;;;;18.25;3.30;;;;;;;10.34;86.37;101316.84;5073609;28;20032;-80
2021/11/11 10:44:58;;;;;;;14.93;3.17;;;;;;;10.35;86.35;101308.44;5079623;28;20021;-80
2021/11/11 10:47:28;;;;;;;18.33;4.10;;;;;;;10.39;86.44;101316.91;5079852;28;20082;-80
2021/11/11 10:49:53;;;;;;;19.90;3.42;;;;;;;10.39;86.01;101300.56;5073180;28;20025;-81
2021/11/11 10:52:19;;;;;;;22.77;3.63;;;;;;;10.37;85.68;101305.47;5072395;28;20052;-81
2021/11/11 10:54:57;;;;;;;21.48;3.55;;;;;;;10.43;86.04;101315.31;5073141;28;20250;-81
2021/11/11 10:57:41;;;;;;;16.23;3.22;;;;;;;10.46;85.50;101309.34;5073200;28;20074;-81
2021/11/11 11:00:22;;;;;;;20.95;3.75;;;;;;;10.47;85.67;101294.63;5071939;28;20017;-81
2021/11/11 11:03:01;;;;;;;19.42;3.50;;;;;;;10.48;85.34;101295.47;5073401;28;20103;-80
2021/11/11 11:05:35;;;;;;;26.52;3.97;;;;;;;10.52;85.59;101300.13;5080355;28;20031;-80
2021/11/11 11:08:33;;;;;;;17.58;3.92;;;;;;;10.56;85.63;101297.72;5093517;28;20027;-80
2021/11/11 11:11:06;;;;;;;22.55;4.57;;;;;;;10.63;85.72;101293.66;5093397;28;20498;-80
2021/11/11 11:13:37;;;;;;;14.35;3.38;;;;;;;10.73;85.21;101292.09;5091800;28;20044;-80
2021/11/11 11:16:07;;;;;;;19.00;3.40;;;;;;;10.83;84.67;101297.59;5093186;28;20089;-80
2021/11/11 11:18:41;;;;;;;20.17;3.05;;;;;;;10.91;84.20;101294.38;5093264;28;20039;-80
2021/11/11 11:21:16;;;;;;;14.80;3.03;;;;;;;11.04;83.88;101304.81;5066302;28;20036;-80
2021/11/11 11:23:42;;;;;;;18.35;3.50;;;;;;;11.19;83.92;101282.28;5072921;28;20065;-80
2021/11/11 11:26:15;;;;;;;14.32;2.90;;;;;;;11.25;83.58;101283.13;5072769;28;20020;-80
2021/11/11 11:28:52;;;;;;;15.07;3.38;;;;;;;11.25;83.58;101288.56;5074941;28;20489;-80
2021/11/11 11:32:05;;;;;;;24.30;4.00;;;;;;;11.32;83.56;101281.78;5093000;28;20103;-80
2021/11/11 11:34:34;;;;;;;24.23;4.57;;;;;;;11.44;83.58;101270.63;5056296;28;20032;-79
2021/11/11 11:37:10;;;;;;;16.75;3.72;;;;;;;11.44;83.00;101270.63;5092827;28;20388;-79
2021/11/11 11:39:46;;;;;;;16.90;3.60;;;;;;;11.33;83.12;101279.88;5093032;28;20102;-79
2021/11/11 11:42:17;;;;;;;19.73;3.55;;;;;;;11.18;82.80;101274.34;5091618;28;20020;-79
2021/11/11 11:44:53;;;;;;;20.67;3.97;;;;;;;11.02;82.95;101262.53;5087594;28;20029;-79
2021/11/11 11:50:12;;;;;;;14.93;3.00;;;;;;;10.87;83.42;101272.28;5078400;28;20026;-79
2021/11/11 11:52:40;;;;;;;22.80;4.40;;;;;;;10.85;83.30;101265.44;5092668;28;20023;-79
2021/11/11 11:55:16;;;;;;;12.57;3.35;;;;;;;10.88;83.59;101254.00;5091565;28;20027;-79